createdAt,value
2019-02-06T00:02:10.176Z,78.09
2019-02-06T00:04:42.184Z,78.38
2019-02-06T00:07:14.193Z,78.09
2019-02-06T00:09:46.225Z,77.92
2019-02-06T00:12:18.188Z,78.14
2019-02-06T00:14:50.180Z,78.31
2019-02-06T00:17:22.235Z,78.18
2019-02-06T00:19:54.237Z,78.06
2019-02-06T00:22:26.209Z,77.84
2019-02-06T00:24:58.199Z,77.92
2019-02-06T00:27:30.192Z,78.10
2019-02-06T00:30:03.181Z,77.80
2019-02-06T00:32:35.244Z,78.13
2019-02-06T00:35:07.251Z,78.06
2019-02-06T00:37:39.257Z,77.49
2019-02-06T00:40:11.240Z,77.84
2019-02-06T00:42:43.248Z,78.24
2019-02-06T00:45:15.364Z,78.39
2019-02-06T00:47:47.403Z,78.38
2019-02-06T00:50:19.350Z,78.71
2019-02-06T00:52:51.357Z,78.69
2019-02-06T00:55:23.323Z,78.69
2019-02-06T00:57:55.333Z,78.64
2019-02-06T01:00:27.411Z,78.41
2019-02-06T01:02:59.797Z,78.45
2019-02-06T01:05:38.494Z,78.45
2019-02-06T01:08:05.768Z,78.57
2019-02-06T01:10:37.719Z,78.57
2019-02-06T01:13:10.247Z,78.11
2019-02-06T01:15:42.716Z,78.31
2019-02-06T01:18:14.760Z,78.34
2019-02-06T01:20:46.752Z,78.10
2019-02-06T01:23:18.727Z,78.49
2019-02-06T01:25:50.813Z,78.24
2019-02-06T01:28:23.112Z,78.29
2019-02-06T01:31:01.801Z,78.26
2019-02-06T01:33:33.787Z,78.11
2019-02-06T01:36:05.770Z,78.22
2019-02-06T01:38:37.759Z,77.81
2019-02-06T01:41:09.771Z,77.57
2019-02-06T01:43:41.796Z,77.88
2019-02-06T01:46:13.782Z,78.01
2019-02-06T01:48:45.783Z,78.12
2019-02-06T01:51:17.750Z,78.07
2019-02-06T01:53:49.718Z,77.94
2019-02-06T01:56:21.677Z,77.95
2019-02-06T01:58:53.654Z,77.84
2019-02-06T02:01:25.654Z,78.10
2019-02-06T02:03:57.721Z,77.99
2019-02-06T02:06:29.813Z,77.71
2019-02-06T02:09:03.899Z,77.98
2019-02-06T02:11:35.953Z,78.22
2019-02-06T02:14:07.926Z,78.42
2019-02-06T02:16:40.015Z,78.03
2019-02-06T02:19:11.973Z,78.20
2019-02-06T02:21:43.985Z,78.24
2019-02-06T02:24:15.966Z,78.26
2019-02-06T02:26:47.941Z,77.98
2019-02-06T02:29:19.902Z,78.18
2019-02-06T02:31:51.891Z,78.52
2019-02-06T02:34:23.823Z,78.03
2019-02-06T02:36:55.876Z,78.14
2019-02-06T02:39:27.864Z,77.89
2019-02-06T02:41:59.887Z,78.20
2019-02-06T02:44:31.894Z,78.16
2019-02-06T02:47:03.878Z,78.20
2019-02-06T02:49:35.841Z,78.14
2019-02-06T02:52:07.842Z,77.93
2019-02-06T02:54:39.787Z,78.13
2019-02-06T02:57:11.872Z,78.14
2019-02-06T02:59:43.885Z,77.49
2019-02-06T03:02:42.130Z,77.40
2019-02-06T03:05:18.294Z,77.15
2019-02-06T03:07:50.298Z,77.60
2019-02-06T03:10:23.398Z,78.00
2019-02-06T03:12:55.397Z,78.01
2019-02-06T03:15:27.643Z,78.46
2019-02-06T03:17:59.645Z,78.90
2019-02-06T03:20:31.608Z,78.61
2019-02-06T03:23:03.714Z,78.25
2019-02-06T03:25:35.680Z,78.71
2019-02-06T03:28:07.850Z,78.70
2019-02-06T03:30:39.834Z,78.68
2019-02-06T03:33:11.832Z,78.36
2019-02-06T03:35:43.811Z,78.21
2019-02-06T03:38:15.785Z,77.82
2019-02-06T03:40:47.794Z,77.51
2019-02-06T03:43:19.819Z,77.52
2019-02-06T03:45:51.785Z,77.59
2019-02-06T03:48:23.799Z,77.86
2019-02-06T03:50:55.743Z,77.99
2019-02-06T03:53:29.646Z,78.02
2019-02-06T03:56:01.608Z,77.77
2019-02-06T03:58:33.583Z,77.77
2019-02-06T04:01:05.601Z,77.88
2019-02-06T04:03:37.582Z,77.84
2019-02-06T04:06:09.698Z,77.97
2019-02-06T04:08:41.844Z,77.99
2019-02-06T04:11:13.879Z,77.90
2019-02-06T04:13:45.917Z,77.74
2019-02-06T04:16:17.929Z,77.80
2019-02-06T04:18:49.931Z,77.58
2019-02-06T04:21:21.924Z,77.33
2019-02-06T04:23:53.945Z,77.04
2019-02-06T04:26:26.061Z,77.14
2019-02-06T04:28:58.059Z,77.31
2019-02-06T04:31:30.046Z,77.42
2019-02-06T04:34:02.037Z,77.16
2019-02-06T04:36:34.077Z,77.23
2019-02-06T04:39:07.284Z,76.98
2019-02-06T04:41:39.304Z,77.02
2019-02-06T04:44:11.382Z,77.15
2019-02-06T04:46:43.402Z,77.25
2019-02-06T04:49:15.383Z,77.29
2019-02-06T04:51:47.473Z,77.27
2019-02-06T04:54:19.489Z,77.55
2019-02-06T04:56:51.421Z,77.19
2019-02-06T04:59:23.450Z,76.80
2019-02-06T05:01:55.438Z,76.96
2019-02-06T05:04:27.386Z,76.93
2019-02-06T05:06:59.417Z,76.76
2019-02-06T05:09:31.381Z,77.13
2019-02-06T05:12:03.381Z,76.97
2019-02-06T05:14:35.333Z,77.03
2019-02-06T05:17:07.342Z,77.19
2019-02-06T05:19:39.297Z,77.27
2019-02-06T05:22:11.285Z,76.40
2019-02-06T05:24:43.782Z,76.08
2019-02-06T05:27:15.797Z,76.74
2019-02-06T05:29:47.751Z,76.72
2019-02-06T05:32:20.849Z,77.30
2019-02-06T05:34:52.803Z,77.42
2019-02-06T05:37:32.055Z,77.27
2019-02-06T05:39:58.724Z,77.43
2019-02-06T05:42:30.752Z,77.27
2019-02-06T05:45:04.701Z,77.10
2019-02-06T05:47:36.701Z,76.95
2019-02-06T05:50:09.979Z,76.28
2019-02-06T05:52:41.934Z,75.67
2019-02-06T05:55:14.842Z,74.85
2019-02-06T05:57:47.489Z,75.28
2019-02-06T06:00:28.119Z,75.71
2019-02-06T06:03:00.101Z,75.75
2019-02-06T06:05:32.091Z,75.92
2019-02-06T06:08:04.126Z,76.04
2019-02-06T06:10:36.076Z,76.15
2019-02-06T06:13:08.112Z,76.21
2019-02-06T06:15:40.185Z,75.81
2019-02-06T06:18:12.260Z,76.33
2019-02-06T06:20:44.214Z,76.38
2019-02-06T06:23:16.521Z,76.42
2019-02-06T06:25:48.500Z,76.29
2019-02-06T06:28:20.505Z,76.28
2019-02-06T06:30:52.483Z,76.25
2019-02-06T06:33:24.473Z,76.29
2019-02-06T06:35:56.747Z,76.00
2019-02-06T06:38:28.754Z,75.87
2019-02-06T06:41:00.873Z,76.04
2019-02-06T06:43:32.881Z,76.28
2019-02-06T06:46:04.869Z,76.33
2019-02-06T06:48:37.057Z,76.53
2019-02-06T06:51:09.023Z,76.74
2019-02-06T06:53:41.018Z,75.94
2019-02-06T06:56:13.080Z,75.77
2019-02-06T06:58:45.061Z,75.90
2019-02-06T07:01:17.023Z,75.90
2019-02-06T07:03:49.033Z,75.67
2019-02-06T07:06:21.077Z,75.81
2019-02-06T07:08:53.095Z,76.28
2019-02-06T07:11:25.107Z,76.38
2019-02-06T07:13:57.133Z,76.16
2019-02-06T07:16:29.108Z,75.83
2019-02-06T07:19:02.915Z,75.39
2019-02-06T07:21:34.888Z,74.96
2019-02-06T07:24:06.859Z,74.54
2019-02-06T07:26:39.098Z,74.24
2019-02-06T07:29:11.069Z,73.46
2019-02-06T07:31:43.069Z,72.75
2019-02-06T07:34:15.080Z,72.00
2019-02-06T07:36:47.134Z,71.29
2019-02-06T07:39:19.145Z,71.42
2019-02-06T07:41:51.158Z,71.08
2019-02-06T07:44:23.129Z,70.93
2019-02-06T07:46:55.108Z,70.99
2019-02-06T07:49:27.161Z,71.12
2019-02-06T07:51:59.200Z,70.59
2019-02-06T07:54:31.233Z,71.15
2019-02-06T07:57:03.233Z,71.50
2019-02-06T07:59:35.203Z,70.79
2019-02-06T08:02:07.197Z,70.16
2019-02-06T08:04:41.498Z,70.10
2019-02-06T08:07:13.133Z,69.48
2019-02-06T08:09:45.150Z,68.28
2019-02-06T08:12:17.195Z,67.74
2019-02-06T08:14:49.999Z,67.32
2019-02-06T08:17:22.007Z,67.78
2019-02-06T08:19:54.006Z,67.17
2019-02-06T08:22:26.008Z,68.17
2019-02-06T08:24:58.007Z,67.01
2019-02-06T08:27:30.512Z,68.31
2019-02-06T08:30:02.854Z,68.41
2019-02-06T08:32:37.813Z,68.45
2019-02-06T08:35:09.052Z,68.70
2019-02-06T08:37:41.072Z,68.29
2019-02-06T08:40:13.669Z,68.12
2019-02-06T08:42:45.628Z,66.74
2019-02-06T08:45:17.893Z,66.50
2019-02-06T08:47:49.845Z,66.92
2019-02-06T08:50:21.899Z,65.95
2019-02-06T08:52:54.311Z,66.85
2019-02-06T08:55:27.491Z,66.28
2019-02-06T08:57:59.881Z,65.58
2019-02-06T09:00:33.774Z,65.08
2019-02-06T09:03:07.937Z,64.00
2019-02-06T09:05:39.907Z,64.58
2019-02-06T09:08:11.920Z,65.21
2019-02-06T09:10:43.924Z,64.29
2019-02-06T09:13:15.940Z,63.33
2019-02-06T09:15:47.959Z,62.92
2019-02-06T09:18:19.962Z,63.70
2019-02-06T09:20:52.763Z,63.01
2019-02-06T09:23:25.156Z,62.94
2019-02-06T09:25:57.559Z,62.61
2019-02-06T09:28:30.041Z,62.63
2019-02-06T09:31:02.009Z,61.53
2019-02-06T09:33:34.032Z,61.58
2019-02-06T09:36:06.039Z,61.93
2019-02-06T09:38:38.079Z,62.03
2019-02-06T09:41:10.183Z,61.73
2019-02-06T09:43:42.180Z,61.43
2019-02-06T09:46:14.273Z,60.31
2019-02-06T09:48:46.250Z,59.75
2019-02-06T09:51:19.365Z,60.68
2019-02-06T09:53:52.180Z,60.56
2019-02-06T09:56:24.232Z,61.21
2019-02-06T09:58:56.192Z,61.07
2019-02-06T10:01:28.191Z,60.66
2019-02-06T10:04:00.167Z,60.21
2019-02-06T10:06:34.093Z,59.17
2019-02-06T10:09:07.543Z,59.86
2019-02-06T10:11:39.543Z,60.78
2019-02-06T10:14:11.515Z,59.96
2019-02-06T10:16:43.505Z,59.53
2019-02-06T10:19:17.371Z,58.60
2019-02-06T10:21:52.786Z,58.20
2019-02-06T10:24:23.292Z,57.98
2019-02-06T10:26:55.272Z,57.45
2019-02-06T10:29:27.248Z,56.73
2019-02-06T10:31:59.435Z,57.17
2019-02-06T10:34:31.441Z,55.29
2019-02-06T10:37:03.570Z,56.02
2019-02-06T10:39:35.580Z,55.00
2019-02-06T10:42:07.617Z,55.49
2019-02-06T10:44:39.628Z,54.53
2019-02-06T10:47:11.663Z,55.12
2019-02-06T10:49:43.655Z,53.28
2019-02-06T10:52:15.718Z,53.54
2019-02-06T10:54:47.733Z,54.92
2019-02-06T10:57:19.755Z,53.66
2019-02-06T10:59:51.817Z,53.41
2019-02-06T11:02:23.820Z,53.85
2019-02-06T11:04:55.804Z,52.65
2019-02-06T11:07:27.812Z,52.99
2019-02-06T11:09:59.815Z,53.40
2019-02-06T11:12:31.806Z,51.99
2019-02-06T11:15:44.719Z,51.94
2019-02-06T11:18:16.709Z,51.72
2019-02-06T11:20:48.724Z,51.31
2019-02-06T11:23:20.692Z,52.05
2019-02-06T11:25:52.716Z,52.14
2019-02-06T11:28:24.693Z,52.50
2019-02-06T11:30:57.345Z,51.23
2019-02-06T11:33:30.578Z,51.38
2019-02-06T11:36:24.332Z,50.68
2019-02-06T11:38:55.887Z,50.36
2019-02-06T11:41:27.869Z,50.62
2019-02-06T11:43:59.876Z,50.79
2019-02-06T11:46:31.934Z,50.34
2019-02-06T11:51:57.942Z,50.56
2019-02-06T11:54:29.938Z,49.56
2019-02-06T11:57:03.891Z,49.26
2019-02-06T11:59:35.885Z,49.26
2019-02-06T12:02:07.909Z,49.58
2019-02-06T12:04:39.919Z,49.19
2019-02-06T12:07:11.964Z,49.38
2019-02-06T12:09:45.865Z,48.97
2019-02-06T12:12:17.899Z,47.97
2019-02-06T12:14:49.872Z,48.98
2019-02-06T12:17:21.875Z,48.03
2019-02-06T12:19:53.873Z,48.70
2019-02-06T12:22:27.792Z,47.90
2019-02-06T12:24:59.830Z,47.11
2019-02-06T12:27:31.855Z,47.35
2019-02-06T12:30:46.301Z,48.25
2019-02-06T12:35:56.325Z,48.08
2019-02-06T12:38:28.346Z,46.69
2019-02-06T12:41:00.354Z,46.37
2019-02-06T12:43:32.350Z,46.20
2019-02-06T12:46:45.328Z,46.39
2019-02-06T12:49:17.332Z,47.12
2019-02-06T12:51:52.270Z,47.00
2019-02-06T12:54:23.291Z,45.49
2019-02-06T12:56:55.278Z,46.67
2019-02-06T12:59:29.219Z,46.36
2019-02-06T13:02:01.198Z,46.78
2019-02-06T13:04:33.282Z,47.41
2019-02-06T13:07:05.261Z,45.95
2019-02-06T13:09:37.298Z,46.44
2019-02-06T13:12:11.210Z,46.00
2019-02-06T13:14:43.213Z,45.01
2019-02-06T13:17:15.211Z,45.77
2019-02-06T13:19:47.247Z,44.87
2019-02-06T13:22:19.244Z,44.90
2019-02-06T13:24:53.171Z,44.23
2019-02-06T13:27:28.150Z,43.97
2019-02-06T13:30:00.203Z,43.80
2019-02-06T13:32:32.175Z,43.65
2019-02-06T13:35:45.556Z,43.51
2019-02-06T13:38:17.551Z,42.84
2019-02-06T13:40:49.588Z,42.78
2019-02-06T13:43:21.621Z,42.84
2019-02-06T13:45:53.633Z,43.25
2019-02-06T13:48:25.601Z,43.58
2019-02-06T13:50:57.661Z,43.64
2019-02-06T13:53:29.723Z,42.25
2019-02-06T13:56:01.764Z,42.03
2019-02-06T13:58:33.797Z,42.79
2019-02-06T14:01:05.840Z,42.40
2019-02-06T14:03:37.829Z,42.79
2019-02-06T14:06:11.444Z,42.52
2019-02-06T14:08:43.766Z,42.60
2019-02-06T14:11:15.782Z,41.80
2019-02-06T14:13:47.817Z,42.20
2019-02-06T14:16:19.848Z,42.53
2019-02-06T14:18:53.778Z,42.18
2019-02-06T14:21:25.933Z,40.86
2019-02-06T14:24:29.113Z,41.58
2019-02-06T14:27:40.069Z,41.45
2019-02-06T14:30:20.598Z,41.44
2019-02-06T14:33:18.905Z,40.34
2019-02-06T14:36:29.882Z,40.36
2019-02-06T14:39:40.831Z,39.21
2019-02-06T14:42:56.344Z,38.98
2019-02-06T14:46:03.083Z,39.29
2019-02-06T14:49:13.170Z,38.84
2019-02-06T14:52:39.588Z,39.61
2019-02-06T14:55:40.338Z,40.13
2019-02-06T14:58:56.931Z,39.81
2019-02-06T15:02:17.087Z,40.11
2019-02-06T15:05:45.044Z,38.99
2019-02-06T15:08:42.440Z,38.07
2019-02-06T15:11:45.976Z,38.87
2019-02-06T15:14:37.222Z,39.15
2019-02-06T15:17:53.202Z,39.82
2019-02-06T15:20:58.415Z,38.76
2019-02-06T15:24:08.309Z,39.29
2019-02-06T15:27:42.131Z,39.35
2019-02-06T15:30:56.905Z,39.33
2019-02-06T15:34:15.433Z,39.87
2019-02-06T15:37:10.560Z,39.59
2019-02-06T15:40:33.155Z,40.48
2019-02-06T15:43:52.280Z,40.17
2019-02-06T15:47:08.275Z,40.73
2019-02-06T15:50:10.211Z,41.15
2019-02-06T15:53:06.990Z,41.72
2019-02-06T15:56:19.902Z,41.44
2019-02-06T15:59:25.325Z,42.40
2019-02-06T16:02:30.373Z,42.92
2019-02-06T16:05:52.469Z,44.39
2019-02-06T16:09:18.588Z,45.29
2019-02-06T16:12:38.200Z,46.61
2019-02-06T16:15:25.646Z,47.77
2019-02-06T16:18:43.010Z,48.95
2019-02-06T16:21:53.272Z,49.39
2019-02-06T16:24:32.745Z,50.16
2019-02-06T16:28:20.385Z,50.02
2019-02-06T16:31:43.250Z,49.82
2019-02-06T16:34:59.711Z,49.86
2019-02-06T16:38:10.994Z,50.20
2019-02-06T16:41:08.431Z,50.80
2019-02-06T16:44:30.417Z,50.52
2019-02-06T16:47:52.247Z,49.69
2019-02-06T16:51:09.031Z,48.63
2019-02-06T16:54:16.302Z,47.67
2019-02-06T16:57:29.526Z,49.03
2019-02-06T17:00:25.253Z,50.05
2019-02-06T17:03:45.032Z,51.08
2019-02-06T17:06:38.866Z,51.71
2019-02-06T17:09:43.397Z,52.59
2019-02-06T17:12:44.473Z,52.99
2019-02-06T17:15:50.584Z,53.53
2019-02-06T17:18:55.255Z,53.96
2019-02-06T17:22:24.293Z,57.19
2019-02-06T17:25:47.060Z,57.83
2019-02-06T17:28:45.274Z,58.06
2019-02-06T17:32:11.116Z,58.19
2019-02-06T17:35:11.707Z,58.30
2019-02-06T17:38:22.713Z,57.10
2019-02-06T17:41:31.537Z,55.91
2019-02-06T17:44:36.483Z,57.70
2019-02-06T17:47:53.088Z,60.99
2019-02-06T17:50:54.429Z,62.14
2019-02-06T17:53:32.585Z,63.84
2019-02-06T17:56:04.636Z,64.55
2019-02-06T17:58:42.067Z,65.39
2019-02-06T18:01:47.839Z,66.00
2019-02-06T18:04:28.808Z,65.93
2019-02-06T18:07:02.014Z,65.83
2019-02-06T18:09:34.075Z,64.71
2019-02-06T18:12:06.597Z,59.92
2019-02-06T18:14:38.637Z,62.14
2019-02-06T18:17:10.746Z,63.56
2019-02-06T18:19:42.808Z,64.33
2019-02-06T18:22:14.871Z,65.22
2019-02-06T18:24:47.142Z,63.97
2019-02-06T18:27:19.376Z,64.16
2019-02-06T18:29:53.293Z,64.94
2019-02-06T18:32:26.035Z,65.47
2019-02-06T18:34:58.081Z,65.78
2019-02-06T18:37:30.578Z,66.05
2019-02-06T18:40:03.883Z,66.38
2019-02-06T18:42:36.998Z,66.58
2019-02-06T18:45:12.642Z,66.98
2019-02-06T18:47:45.318Z,67.51
2019-02-06T18:50:19.623Z,67.42
2019-02-06T18:52:51.878Z,67.88
2019-02-06T18:55:23.946Z,69.32
2019-02-06T18:57:56.346Z,69.47
2019-02-06T19:00:32.272Z,69.82
2019-02-06T19:03:08.460Z,70.24
2019-02-06T19:05:40.558Z,70.01
2019-02-06T19:08:12.740Z,69.15
2019-02-06T19:10:45.066Z,69.12
2019-02-06T19:13:17.068Z,69.33
2019-02-06T19:15:56.623Z,69.20
2019-02-06T19:18:24.163Z,69.34
2019-02-06T19:20:58.272Z,68.97
2019-02-06T19:23:32.541Z,68.52
2019-02-06T19:26:04.775Z,69.50
2019-02-06T19:28:38.612Z,69.17
2019-02-06T19:31:10.993Z,69.81
2019-02-06T19:33:43.132Z,70.06
2019-02-06T19:36:15.524Z,70.27
2019-02-06T19:38:47.883Z,70.34
2019-02-06T19:41:19.997Z,70.40
2019-02-06T19:43:52.039Z,69.73
2019-02-06T19:46:24.775Z,69.36
2019-02-06T19:48:56.817Z,69.28
2019-02-06T19:51:29.442Z,69.22
2019-02-06T19:54:01.480Z,69.26
2019-02-06T19:56:33.610Z,69.34
2019-02-06T19:59:05.818Z,69.56
2019-02-06T20:01:37.991Z,69.62
2019-02-06T20:04:10.280Z,69.60
2019-02-06T20:06:42.607Z,69.58
2019-02-06T20:09:14.967Z,69.58
2019-02-06T20:11:47.375Z,69.42
2019-02-06T20:14:19.425Z,69.63
2019-02-06T20:16:51.603Z,69.79
2019-02-06T20:19:24.269Z,69.91
2019-02-06T20:21:56.438Z,70.18
2019-02-06T20:24:28.475Z,69.74
2019-02-06T20:27:00.865Z,70.04
2019-02-06T20:29:32.963Z,70.67
2019-02-06T20:32:05.027Z,71.21
2019-02-06T20:34:37.130Z,71.73
2019-02-06T20:37:09.201Z,71.87
2019-02-06T20:39:41.283Z,72.29
2019-02-06T20:42:13.402Z,72.18
2019-02-06T20:44:45.546Z,72.25
2019-02-06T20:47:17.752Z,72.42
2019-02-06T20:49:49.850Z,72.29
2019-02-06T20:52:23.663Z,71.87
2019-02-06T20:54:55.890Z,71.98
2019-02-06T20:57:28.013Z,72.20
2019-02-06T21:00:00.549Z,72.24
2019-02-06T21:02:32.587Z,72.23
2019-02-06T21:05:05.654Z,72.02
2019-02-06T21:07:37.786Z,72.04
2019-02-06T21:10:14.071Z,72.23
2019-02-06T21:12:46.075Z,71.48
2019-02-06T21:15:18.145Z,71.46
2019-02-06T21:17:50.280Z,72.23
2019-02-06T21:20:22.376Z,72.44
2019-02-06T21:22:54.565Z,72.30
2019-02-06T21:25:26.641Z,72.33
2019-02-06T21:27:58.656Z,71.63
2019-02-06T21:30:32.454Z,71.72
2019-02-06T21:33:04.503Z,71.67
2019-02-06T21:35:36.582Z,71.95
2019-02-06T21:38:08.594Z,71.82
2019-02-06T21:40:40.852Z,72.04
2019-02-06T21:43:12.863Z,72.06
2019-02-06T21:45:44.928Z,71.66
2019-02-06T21:48:16.944Z,71.78
2019-02-06T21:50:48.983Z,71.32
2019-02-06T21:53:20.980Z,71.39
2019-02-06T21:55:53.021Z,71.13
2019-02-06T21:58:25.078Z,71.21
2019-02-06T22:00:57.115Z,71.28
2019-02-06T22:03:29.138Z,71.35
2019-02-06T22:06:01.185Z,71.84
2019-02-06T22:08:33.159Z,71.89
2019-02-06T22:11:05.273Z,71.77
2019-02-06T22:13:37.822Z,71.81
2019-02-06T22:16:09.868Z,71.90
2019-02-06T22:18:42.075Z,71.71
2019-02-06T22:21:14.134Z,71.94
2019-02-06T22:23:46.108Z,71.82
2019-02-06T22:26:18.775Z,71.91
2019-02-06T22:28:50.795Z,72.17
2019-02-06T22:31:22.829Z,72.11
2019-02-06T22:33:56.249Z,72.07
2019-02-06T22:36:28.237Z,72.16
2019-02-06T22:39:00.254Z,72.10
2019-02-06T22:41:32.254Z,72.15
2019-02-06T22:44:06.593Z,72.32
2019-02-06T22:46:38.225Z,72.17
2019-02-06T22:49:10.253Z,71.63
2019-02-06T22:51:42.252Z,71.75
2019-02-06T22:54:14.247Z,72.01
2019-02-06T22:56:46.352Z,72.27
2019-02-06T23:01:57.586Z,72.28
2019-02-06T23:04:29.626Z,72.12
2019-02-06T23:07:01.583Z,72.22
2019-02-06T23:09:53.162Z,71.98
2019-02-06T23:12:27.334Z,72.00
2019-02-06T23:14:59.097Z,72.27
2019-02-06T23:17:31.094Z,72.37
2019-02-06T23:20:43.989Z,72.30
2019-02-06T23:23:16.023Z,72.30
2019-02-06T23:25:48.033Z,71.98
2019-02-06T23:28:20.035Z,71.90
2019-02-06T23:30:52.061Z,71.87
2019-02-06T23:33:24.092Z,72.01
2019-02-06T23:35:56.122Z,72.05
2019-02-06T23:38:28.130Z,71.96
2019-02-06T23:41:00.145Z,71.91
2019-02-06T23:43:32.142Z,72.05
2019-02-06T23:46:04.323Z,72.00
2019-02-06T23:48:36.351Z,71.94
2019-02-06T23:51:10.285Z,71.69
2019-02-06T23:53:42.300Z,71.80
2019-02-06T23:56:14.312Z,71.83
2019-02-06T23:58:46.275Z,71.88
